createdAt,value
2017-10-28T00:00:05.367Z,1.07
2017-10-28T00:02:33.570Z,0.70
2017-10-28T00:05:01.042Z,0.60
2017-10-28T00:07:28.498Z,2.03
2017-10-28T00:09:55.926Z,0.87
2017-10-28T00:12:24.242Z,1.70
2017-10-28T00:14:51.667Z,0.53
2017-10-28T00:17:19.879Z,1.20
2017-10-28T00:19:47.347Z,1.47
2017-10-28T00:22:14.777Z,1.57
2017-10-28T00:24:42.266Z,1.00
2017-10-28T00:27:09.730Z,2.60
2017-10-28T00:29:37.189Z,0.93
2017-10-28T00:32:10.314Z,1.80
2017-10-28T00:34:43.542Z,0.60
2017-10-28T00:37:10.971Z,1.20
2017-10-28T00:39:38.404Z,1.20
2017-10-28T00:42:05.829Z,0.63
2017-10-28T00:44:33.313Z,1.90
2017-10-28T00:47:00.738Z,0.80
2017-10-28T00:49:28.943Z,0.93
2017-10-28T00:51:56.370Z,0.80
2017-10-28T00:54:24.567Z,0.70
2017-10-28T00:56:52.062Z,0.70
2017-10-28T00:59:19.524Z,0.77
2017-10-28T01:01:46.974Z,1.40
2017-10-28T01:04:14.401Z,0.60
2017-10-28T01:06:42.617Z,0.70
2017-10-28T01:09:10.043Z,1.00
2017-10-28T01:11:38.244Z,1.10
2017-10-28T01:14:05.723Z,0.60
2017-10-28T01:16:33.178Z,1.20
2017-10-28T01:19:00.643Z,0.60
2017-10-28T01:21:28.108Z,0.70
2017-10-28T01:23:55.530Z,0.83
2017-10-28T01:26:23.746Z,1.67
2017-10-28T01:28:51.169Z,0.60
2017-10-28T01:31:19.384Z,0.90
2017-10-28T01:33:46.806Z,1.30
2017-10-28T01:36:15.003Z,0.60
2017-10-28T01:38:42.485Z,1.40
2017-10-28T01:41:09.914Z,0.77
2017-10-28T01:43:37.405Z,1.20
2017-10-28T01:46:04.866Z,0.40
2017-10-28T01:48:32.328Z,1.33
2017-10-28T01:50:59.786Z,0.73
2017-10-28T01:53:27.226Z,0.80
2017-10-28T01:55:54.678Z,0.40
2017-10-28T01:58:22.115Z,0.87
2017-10-28T02:00:49.538Z,0.63
2017-10-28T02:03:16.975Z,0.50
2017-10-28T02:05:44.459Z,1.20
2017-10-28T02:08:11.889Z,0.30
2017-10-28T02:10:39.307Z,0.83
2017-10-28T02:13:06.842Z,0.67
2017-10-28T02:15:34.289Z,0.67
2017-10-28T02:18:01.762Z,0.50
2017-10-28T02:20:29.200Z,0.80
2017-10-28T02:22:56.617Z,0.90
2017-10-28T02:25:24.051Z,0.73
2017-10-28T02:27:51.473Z,1.00
2017-10-28T02:30:19.675Z,0.83
2017-10-28T02:32:47.147Z,0.50
2017-10-28T02:35:14.610Z,0.60
2017-10-28T02:37:42.042Z,0.87
2017-10-28T02:40:09.542Z,0.90
2017-10-28T02:42:36.991Z,1.60
2017-10-28T02:45:04.413Z,0.77
2017-10-28T02:47:32.613Z,0.90
2017-10-28T02:50:00.099Z,1.30
2017-10-28T02:52:27.529Z,0.63
2017-10-28T02:54:55.007Z,1.17
2017-10-28T02:57:22.478Z,1.27
2017-10-28T02:59:49.907Z,0.80
2017-10-28T03:02:18.110Z,1.20
2017-10-28T03:04:45.529Z,1.30
2017-10-28T03:07:13.754Z,1.27
2017-10-28T03:09:41.214Z,0.63
2017-10-28T03:12:08.657Z,0.70
2017-10-28T03:14:36.070Z,2.20
2017-10-28T03:17:03.599Z,1.13
2017-10-28T03:19:31.067Z,1.10
2017-10-28T03:21:58.487Z,0.67
2017-10-28T03:24:26.686Z,1.03
2017-10-28T03:26:54.159Z,0.70
2017-10-28T03:29:21.595Z,0.80
2017-10-28T03:31:49.086Z,0.80
2017-10-28T03:34:16.515Z,1.13
2017-10-28T03:36:44.006Z,0.60
2017-10-28T03:39:11.470Z,0.50
2017-10-28T03:41:38.891Z,0.90
2017-10-28T03:44:07.109Z,0.93
2017-10-28T03:46:34.530Z,1.10
2017-10-28T03:49:02.727Z,0.73
2017-10-28T03:51:30.161Z,1.10
2017-10-28T03:53:58.382Z,1.37
2017-10-28T03:56:25.850Z,0.83
2017-10-28T03:58:53.398Z,0.67
2017-10-28T04:01:20.960Z,0.43
2017-10-28T04:03:48.436Z,0.50
2017-10-28T04:06:15.898Z,1.60
2017-10-28T04:08:43.326Z,0.97
2017-10-28T04:11:11.543Z,0.90
2017-10-28T04:13:38.962Z,1.03
2017-10-28T04:16:07.175Z,0.97
2017-10-28T04:18:34.603Z,0.90
2017-10-28T04:21:02.030Z,0.73
2017-10-28T04:23:29.467Z,0.70
2017-10-28T04:25:56.922Z,0.90
2017-10-28T04:28:24.358Z,0.90
2017-10-28T04:30:51.777Z,1.00
2017-10-28T04:33:19.302Z,0.73
2017-10-28T04:35:46.727Z,0.60
2017-10-28T04:38:14.942Z,0.63
2017-10-28T04:40:42.403Z,0.80
2017-10-28T04:43:09.826Z,0.80
2017-10-28T04:45:38.030Z,1.00
2017-10-28T04:48:05.469Z,1.40
2017-10-28T04:50:33.657Z,0.53
2017-10-28T04:53:01.146Z,0.90
2017-10-28T04:55:28.577Z,1.53
2017-10-28T04:57:56.004Z,1.23
2017-10-28T05:00:23.439Z,1.20
2017-10-28T05:02:50.994Z,0.90
2017-10-28T05:05:18.425Z,1.30
2017-10-28T05:07:45.914Z,1.23
2017-10-28T05:10:13.369Z,1.43
2017-10-28T05:12:40.835Z,1.07
2017-10-28T05:15:08.311Z,1.37
2017-10-28T05:17:35.758Z,1.53
2017-10-28T05:20:03.190Z,1.03
2017-10-28T05:22:30.622Z,0.73
2017-10-28T05:24:58.863Z,1.50
2017-10-28T05:27:26.343Z,1.57
2017-10-28T05:29:53.759Z,1.10
2017-10-28T05:32:21.199Z,1.07
2017-10-28T05:34:49.378Z,1.03
2017-10-28T05:37:17.572Z,1.57
2017-10-28T05:39:44.994Z,1.30
2017-10-28T05:42:12.426Z,1.87
2017-10-28T05:44:39.853Z,2.10
2017-10-28T05:47:07.277Z,1.40
2017-10-28T05:49:34.702Z,2.70
2017-10-28T05:52:02.133Z,1.60
2017-10-28T05:54:29.550Z,0.70
2017-10-28T05:56:56.997Z,1.70
2017-10-28T05:59:24.423Z,2.50
2017-10-28T06:01:51.842Z,2.00
2017-10-28T06:04:19.372Z,1.90
2017-10-28T06:06:46.827Z,2.13
2017-10-28T06:09:14.259Z,2.40
2017-10-28T06:11:41.678Z,2.40
2017-10-28T06:14:09.115Z,2.03
2017-10-28T06:16:36.571Z,1.27
2017-10-28T06:19:04.033Z,1.50
2017-10-28T06:21:31.449Z,2.13
2017-10-28T06:23:59.667Z,2.50
2017-10-28T06:26:27.134Z,1.80
2017-10-28T06:28:54.562Z,2.27
2017-10-28T06:31:22.057Z,1.70
2017-10-28T06:33:49.517Z,2.07
2017-10-28T06:36:16.979Z,1.60
2017-10-28T06:38:44.406Z,2.00
2017-10-28T06:41:12.602Z,1.57
2017-10-28T06:43:40.018Z,2.00
2017-10-28T06:46:07.454Z,2.07
2017-10-28T06:48:34.870Z,2.30
2017-10-28T06:51:02.308Z,1.57
2017-10-28T06:53:30.523Z,1.93
2017-10-28T06:55:57.949Z,3.67
2017-10-28T06:58:26.170Z,2.80
2017-10-28T07:00:53.633Z,2.20
2017-10-28T07:03:21.098Z,1.90
2017-10-28T07:05:48.562Z,2.17
2017-10-28T07:08:16.007Z,2.33
2017-10-28T07:10:43.487Z,2.67
2017-10-28T07:13:10.914Z,1.97
2017-10-28T07:15:38.401Z,2.50
2017-10-28T07:18:05.861Z,1.50
2017-10-28T07:20:33.282Z,2.30
2017-10-28T07:23:01.490Z,3.30
2017-10-28T07:25:28.969Z,2.73
2017-10-28T07:27:56.390Z,2.00
2017-10-28T07:30:24.603Z,1.50
2017-10-28T07:32:52.062Z,1.67
2017-10-28T07:35:19.504Z,2.03
2017-10-28T07:37:46.990Z,1.80
2017-10-28T07:40:14.451Z,2.40
2017-10-28T07:42:41.882Z,3.57
2017-10-28T07:45:09.373Z,2.03
2017-10-28T07:47:36.790Z,1.60
2017-10-28T07:50:04.995Z,2.00
2017-10-28T07:52:32.470Z,2.13
2017-10-28T07:54:59.898Z,1.80
2017-10-28T07:57:28.118Z,1.27
2017-10-28T07:59:55.626Z,1.67
2017-10-28T08:02:23.818Z,1.77
2017-10-28T08:04:52.042Z,2.27
2017-10-28T08:07:19.499Z,1.93
2017-10-28T08:09:46.962Z,2.20
2017-10-28T08:12:14.427Z,2.00
2017-10-28T08:14:41.850Z,2.37
2017-10-28T08:17:09.338Z,2.03
2017-10-28T08:19:36.797Z,1.90
2017-10-28T08:22:04.353Z,2.17
2017-10-28T08:24:31.826Z,2.43
2017-10-28T08:26:59.380Z,2.77
2017-10-28T08:29:26.855Z,3.10
2017-10-28T08:31:54.299Z,2.60
2017-10-28T08:34:21.726Z,2.93
2017-10-28T08:36:49.930Z,2.57
2017-10-28T08:39:18.870Z,2.27
2017-10-28T08:41:46.414Z,2.63
2017-10-28T08:44:13.878Z,2.50
2017-10-28T08:46:41.437Z,2.50
2017-10-28T08:49:08.863Z,1.83
2017-10-28T08:51:37.049Z,2.40
2017-10-28T08:54:04.485Z,3.23
2017-10-28T08:56:33.403Z,2.10
2017-10-28T08:59:00.897Z,1.77
2017-10-28T09:01:28.317Z,2.23
2017-10-28T09:03:56.506Z,3.50
2017-10-28T09:06:23.934Z,3.67
2017-10-28T09:08:51.546Z,2.90
2017-10-28T09:11:19.018Z,2.30
2017-10-28T09:13:46.445Z,2.63
2017-10-28T09:16:13.866Z,3.30
2017-10-28T09:18:41.349Z,3.80
2017-10-28T09:21:09.578Z,2.93
2017-10-28T09:23:37.027Z,2.90
2017-10-28T09:26:04.439Z,2.50
2017-10-28T09:28:31.965Z,1.90
2017-10-28T09:30:59.381Z,3.23
2017-10-28T09:33:27.601Z,2.53
2017-10-28T09:35:55.066Z,3.30
2017-10-28T09:38:22.526Z,3.10
2017-10-28T09:40:49.996Z,3.17
2017-10-28T09:43:17.502Z,2.50
2017-10-28T09:45:45.818Z,2.00
2017-10-28T09:48:13.292Z,2.53
2017-10-28T09:50:40.721Z,2.90
2017-10-28T09:53:08.141Z,2.50
2017-10-28T09:55:35.679Z,2.60
2017-10-28T09:58:03.142Z,2.37
2017-10-28T10:00:30.579Z,2.37
2017-10-28T10:02:58.058Z,2.97
2017-10-28T10:05:25.506Z,2.90
2017-10-28T10:07:52.928Z,2.17
2017-10-28T10:10:21.114Z,3.30
2017-10-28T10:12:49.336Z,2.87
2017-10-28T10:15:16.754Z,3.00
2017-10-28T10:17:44.966Z,2.80
2017-10-28T10:20:12.402Z,3.57
2017-10-28T10:22:40.624Z,2.67
2017-10-28T10:25:08.078Z,2.93
2017-10-28T10:27:35.538Z,3.00
2017-10-28T10:30:02.994Z,2.37
2017-10-28T10:32:30.462Z,2.40
2017-10-28T10:34:57.922Z,3.37
2017-10-28T10:37:25.398Z,3.67
2017-10-28T10:39:52.858Z,3.00
2017-10-28T10:42:20.309Z,2.60
2017-10-28T10:44:47.737Z,3.10
2017-10-28T10:47:15.978Z,2.50
2017-10-28T10:49:43.406Z,2.93
2017-10-28T10:52:10.825Z,2.83
2017-10-28T10:54:39.049Z,2.87
2017-10-28T10:57:06.465Z,1.90
2017-10-28T10:59:34.670Z,2.70
2017-10-28T11:02:02.150Z,2.10
2017-10-28T11:04:29.584Z,2.70
2017-10-28T11:06:57.070Z,3.13
2017-10-28T11:09:24.506Z,2.80
2017-10-28T11:11:51.996Z,1.90
2017-10-28T11:14:19.423Z,3.00
2017-10-28T11:16:46.846Z,3.37
2017-10-28T11:19:14.274Z,2.40
2017-10-28T11:21:41.698Z,2.73
2017-10-28T11:24:09.898Z,2.67
2017-10-28T11:26:37.318Z,2.13
2017-10-28T11:29:05.553Z,2.73
2017-10-28T11:31:32.978Z,2.77
2017-10-28T11:34:01.182Z,2.37
2017-10-28T11:36:28.660Z,4.53
2017-10-28T11:38:56.073Z,3.30
2017-10-28T11:41:24.293Z,3.47
2017-10-28T11:43:51.722Z,3.00
2017-10-28T11:46:19.167Z,2.60
2017-10-28T11:48:47.419Z,2.90
2017-10-28T11:51:14.845Z,2.70
2017-10-28T11:53:42.319Z,2.97
2017-10-28T11:56:09.753Z,3.30
2017-10-28T11:58:37.186Z,3.27
2017-10-28T12:01:04.708Z,3.30
2017-10-28T12:03:32.129Z,2.30
2017-10-28T12:06:00.333Z,2.43
2017-10-28T12:08:27.801Z,3.03
2017-10-28T12:10:55.247Z,3.60
2017-10-28T12:13:22.680Z,2.40
2017-10-28T12:15:50.906Z,3.70
2017-10-28T12:18:18.338Z,2.60
2017-10-28T12:20:45.827Z,2.83
2017-10-28T12:23:13.258Z,2.80
2017-10-28T12:25:40.682Z,3.07
2017-10-28T12:28:08.117Z,3.10
2017-10-28T12:30:35.561Z,2.40
2017-10-28T12:33:02.994Z,2.40
2017-10-28T12:35:31.226Z,3.37
2017-10-28T12:37:58.774Z,3.23
2017-10-28T12:40:26.234Z,3.53
2017-10-28T12:42:53.658Z,2.63
2017-10-28T12:45:21.866Z,2.90
2017-10-28T12:47:49.315Z,2.80
2017-10-28T12:50:16.734Z,2.00
2017-10-28T12:52:44.253Z,3.27
2017-10-28T12:55:11.714Z,2.67
2017-10-28T12:57:39.144Z,2.13
2017-10-28T13:00:07.356Z,3.33
2017-10-28T13:02:34.822Z,4.57
2017-10-28T13:05:02.253Z,3.40
2017-10-28T13:07:29.677Z,3.10
2017-10-28T13:09:57.190Z,3.20
2017-10-28T13:12:24.618Z,2.40
2017-10-28T13:14:52.817Z,2.47
2017-10-28T13:17:20.301Z,2.33
2017-10-28T13:19:47.726Z,2.47
2017-10-28T13:22:15.981Z,2.67
2017-10-28T13:24:43.401Z,2.00
2017-10-28T13:27:10.837Z,3.90
2017-10-28T13:29:38.257Z,2.83
2017-10-28T13:32:06.498Z,3.50
2017-10-28T13:34:33.987Z,2.50
2017-10-28T13:37:01.427Z,3.30
2017-10-28T13:39:28.847Z,2.87
2017-10-28T13:41:57.073Z,3.00
2017-10-28T13:44:24.523Z,2.17
2017-10-28T13:46:51.959Z,3.13
2017-10-28T13:49:20.189Z,3.30
2017-10-28T13:51:47.730Z,2.90
2017-10-28T13:54:15.158Z,3.20
2017-10-28T13:56:42.594Z,2.33
2017-10-28T13:59:10.018Z,2.67
2017-10-28T14:01:37.470Z,2.60
2017-10-28T14:04:04.894Z,2.93
2017-10-28T14:06:33.110Z,2.40
2017-10-28T14:09:00.546Z,2.43
2017-10-28T14:11:27.969Z,2.60
2017-10-28T14:13:56.210Z,1.90
2017-10-28T14:16:23.669Z,2.67
2017-10-28T14:18:51.111Z,2.50
2017-10-28T14:21:18.599Z,2.63
2017-10-28T14:23:46.033Z,2.20
2017-10-28T14:26:13.458Z,2.50
2017-10-28T14:28:42.418Z,2.30
2017-10-28T14:31:09.837Z,2.57
2017-10-28T14:33:38.037Z,2.23
2017-10-28T14:36:05.462Z,2.00
2017-10-28T14:38:32.898Z,1.63
2017-10-28T14:41:00.322Z,2.20
2017-10-28T14:43:27.804Z,1.87
2017-10-28T14:45:55.363Z,1.97
2017-10-28T14:48:22.858Z,1.97
2017-10-28T14:50:51.050Z,1.77
2017-10-28T14:53:19.257Z,3.27
2017-10-28T14:55:46.677Z,1.20
2017-10-28T14:58:14.101Z,1.80
2017-10-28T15:00:41.538Z,1.60
2017-10-28T15:03:09.032Z,1.40
2017-10-28T15:05:36.692Z,1.40
2017-10-28T15:08:04.114Z,1.30
2017-10-28T15:10:32.324Z,1.93
2017-10-28T15:12:59.746Z,2.53
2017-10-28T15:15:27.942Z,2.00
2017-10-28T15:17:55.359Z,2.00
2017-10-28T15:20:22.798Z,1.57
2017-10-28T15:22:50.245Z,2.57
2017-10-28T15:25:17.684Z,2.27
2017-10-28T15:27:45.166Z,1.40
2017-10-28T15:30:12.585Z,1.70
2017-10-28T15:32:40.805Z,1.90
2017-10-28T15:35:08.269Z,1.90
2017-10-28T15:37:35.714Z,3.03
2017-10-28T15:40:03.134Z,2.83
2017-10-28T15:42:31.478Z,3.90
2017-10-28T15:44:58.905Z,2.80
2017-10-28T15:47:26.342Z,3.20
2017-10-28T15:49:53.762Z,3.27
2017-10-28T15:52:21.192Z,2.03
2017-10-28T15:54:48.685Z,1.60
2017-10-28T15:57:16.141Z,2.00
2017-10-28T15:59:43.602Z,3.60
2017-10-28T16:02:11.021Z,1.30
2017-10-28T16:04:39.237Z,1.60
2017-10-28T16:07:06.662Z,1.57
2017-10-28T16:09:34.874Z,2.00
2017-10-28T16:12:02.347Z,1.03
2017-10-28T16:14:29.797Z,2.40
2017-10-28T16:16:57.265Z,3.30
2017-10-28T16:19:24.694Z,1.97
2017-10-28T16:21:52.118Z,1.83
2017-10-28T16:24:19.655Z,1.60
2017-10-28T16:26:47.077Z,1.37
2017-10-28T16:29:15.277Z,3.00
2017-10-28T16:31:42.750Z,1.57
2017-10-28T16:34:10.198Z,1.70
2017-10-28T16:36:38.381Z,2.00
2017-10-28T16:39:05.793Z,1.57
2017-10-28T16:41:33.239Z,2.90
2017-10-28T16:44:00.645Z,1.60
2017-10-28T16:46:28.138Z,2.17
2017-10-28T16:48:55.598Z,1.83
2017-10-28T16:51:23.034Z,1.77
2017-10-28T16:53:51.240Z,1.60
2017-10-28T16:56:18.665Z,0.60
2017-10-28T16:58:46.158Z,1.43
2017-10-28T17:01:13.605Z,1.77
2017-10-28T17:03:41.028Z,1.57
2017-10-28T17:06:09.347Z,1.53
2017-10-28T17:08:37.013Z,1.13
2017-10-28T17:11:04.481Z,2.00
2017-10-28T17:13:31.922Z,2.30
2017-10-28T17:15:59.408Z,0.93
2017-10-28T17:18:26.874Z,2.83
2017-10-28T17:20:54.297Z,1.73
2017-10-28T17:23:22.511Z,1.67
2017-10-28T17:25:49.968Z,3.23
2017-10-28T17:28:17.426Z,2.00
2017-10-28T17:30:44.895Z,2.70
2017-10-28T17:33:12.410Z,1.63
2017-10-28T17:35:40.638Z,1.17
2017-10-28T17:38:08.067Z,1.73
2017-10-28T17:40:35.502Z,1.67
2017-10-28T17:43:02.923Z,2.13
2017-10-28T17:45:30.385Z,1.60
2017-10-28T17:47:57.806Z,2.83
2017-10-28T17:50:26.015Z,1.53
2017-10-28T17:52:53.449Z,1.80
2017-10-28T17:55:21.658Z,1.37
2017-10-28T17:57:49.422Z,2.13
2017-10-28T18:00:16.887Z,0.90
2017-10-28T18:02:44.345Z,1.77
2017-10-28T18:05:11.815Z,0.63
2017-10-28T18:07:39.306Z,1.20
2017-10-28T18:10:06.743Z,1.17
2017-10-28T18:12:34.194Z,1.40
2017-10-28T18:15:01.626Z,1.67
2017-10-28T18:17:29.050Z,1.23
2017-10-28T18:19:56.578Z,2.57
2017-10-28T18:22:24.020Z,1.40
2017-10-28T18:24:51.447Z,1.13
2017-10-28T18:27:18.996Z,1.20
2017-10-28T18:29:46.427Z,1.13
2017-10-28T18:32:13.882Z,1.40
2017-10-28T18:34:41.313Z,2.07
2017-10-28T18:37:09.516Z,1.03
2017-10-28T18:39:36.981Z,1.00
2017-10-28T18:42:04.432Z,1.70
2017-10-28T18:44:31.905Z,1.30
2017-10-28T18:46:59.375Z,1.97
2017-10-28T18:49:26.803Z,0.90
2017-10-28T18:51:54.394Z,1.63
2017-10-28T18:54:21.826Z,1.20
2017-10-28T18:56:49.245Z,1.90
2017-10-28T18:59:16.778Z,2.27
2017-10-28T19:01:44.199Z,2.10
2017-10-28T19:04:12.389Z,2.40
2017-10-28T19:06:39.877Z,0.87
2017-10-28T19:09:07.346Z,2.57
2017-10-28T19:11:34.789Z,1.07
2017-10-28T19:14:02.215Z,1.50
2017-10-28T19:16:30.406Z,1.37
2017-10-28T19:18:58.725Z,3.30
2017-10-28T19:21:26.150Z,2.43
2017-10-28T19:23:54.343Z,1.37
2017-10-28T19:26:21.770Z,1.67
2017-10-28T19:28:49.957Z,1.70
2017-10-28T19:31:18.162Z,1.90
2017-10-28T19:33:45.650Z,1.77
2017-10-28T19:36:13.078Z,1.30
2017-10-28T19:38:40.562Z,1.40
2017-10-28T19:41:07.999Z,0.90
2017-10-28T19:43:35.502Z,1.97
2017-10-28T19:46:02.946Z,1.13
2017-10-28T19:48:30.371Z,1.17
2017-10-28T19:50:58.553Z,1.70
2017-10-28T19:53:26.051Z,1.00
2017-10-28T19:55:53.559Z,1.77
2017-10-28T19:58:21.079Z,1.93
2017-10-28T20:00:48.530Z,1.43
2017-10-28T20:03:16.095Z,1.80
2017-10-28T20:05:43.562Z,2.13
2017-10-28T20:08:11.034Z,2.83
2017-10-28T20:10:38.449Z,2.20
2017-10-28T20:13:05.887Z,1.30
2017-10-28T20:15:33.310Z,1.27
2017-10-28T20:18:00.741Z,2.90
2017-10-28T20:20:28.234Z,1.90
2017-10-28T20:22:55.682Z,1.63
2017-10-28T20:25:23.102Z,2.60
2017-10-28T20:27:51.322Z,2.67
2017-10-28T20:30:18.742Z,2.00
2017-10-28T20:32:46.951Z,2.40
2017-10-28T20:35:14.387Z,2.47
2017-10-28T20:37:42.598Z,1.97
2017-10-28T20:40:10.086Z,2.60
2017-10-28T20:42:37.493Z,2.60
2017-10-28T20:45:05.704Z,1.23
2017-10-28T20:47:33.122Z,1.40
2017-10-28T20:50:01.317Z,1.77
2017-10-28T20:52:28.737Z,1.40
2017-10-28T20:54:56.169Z,2.07
2017-10-28T20:57:23.599Z,2.33
2017-10-28T20:59:51.026Z,1.80
2017-10-28T21:02:18.449Z,2.73
2017-10-28T21:04:45.877Z,2.37
2017-10-28T21:07:13.370Z,1.30
2017-10-28T21:09:40.827Z,2.13
2017-10-28T21:12:08.298Z,1.63
2017-10-28T21:14:35.743Z,2.40
2017-10-28T21:17:03.217Z,1.40
2017-10-28T21:19:30.638Z,1.47
2017-10-28T21:21:58.858Z,1.67
2017-10-28T21:24:26.275Z,2.43
2017-10-28T21:26:54.470Z,1.50
2017-10-28T21:29:21.955Z,0.93
2017-10-28T21:31:49.414Z,2.07
2017-10-28T21:34:16.835Z,2.80
2017-10-28T21:36:45.874Z,2.20
2017-10-28T21:39:13.338Z,2.33
2017-10-28T21:41:40.789Z,1.77
2017-10-28T21:44:08.258Z,1.50
2017-10-28T21:46:35.817Z,1.47
2017-10-28T21:49:03.313Z,1.77
2017-10-28T21:51:30.731Z,1.40
2017-10-28T21:53:58.202Z,1.90
2017-10-28T21:56:25.717Z,1.17
2017-10-28T21:58:53.323Z,1.90
2017-10-28T22:01:20.801Z,1.07
2017-10-28T22:03:48.230Z,2.33
2017-10-28T22:06:15.728Z,2.23
2017-10-28T22:08:43.188Z,1.90
2017-10-28T22:11:10.592Z,3.70
2017-10-28T22:13:38.795Z,2.33
2017-10-28T22:16:06.277Z,1.43
2017-10-28T22:18:33.738Z,1.00
2017-10-28T22:21:01.157Z,1.83
2017-10-28T22:23:29.373Z,1.20
2017-10-28T22:25:56.842Z,2.07
2017-10-28T22:28:24.278Z,2.60
2017-10-28T22:30:51.698Z,1.50
2017-10-28T22:33:19.125Z,2.53
2017-10-28T22:35:46.591Z,1.33
2017-10-28T22:38:14.018Z,1.90
2017-10-28T22:40:41.511Z,2.50
2017-10-28T22:43:08.975Z,1.63
2017-10-28T22:45:36.397Z,1.30
2017-10-28T22:48:03.826Z,2.00
2017-10-28T22:50:31.358Z,1.17
2017-10-28T22:52:58.822Z,1.43
2017-10-28T22:55:26.278Z,2.30
2017-10-28T22:57:53.744Z,1.60
2017-10-28T23:00:21.209Z,1.37
2017-10-28T23:02:48.652Z,1.30
2017-10-28T23:05:16.105Z,2.33
2017-10-28T23:07:43.510Z,2.00
2017-10-28T23:10:10.982Z,1.67
2017-10-28T23:12:39.933Z,2.37
2017-10-28T23:15:07.402Z,1.43
2017-10-28T23:17:34.858Z,1.03
2017-10-28T23:20:02.330Z,3.10
2017-10-28T23:22:29.790Z,1.70
2017-10-28T23:24:57.218Z,1.63
2017-10-28T23:27:24.750Z,1.13
2017-10-28T23:29:52.166Z,1.00
2017-10-28T23:32:19.592Z,1.97
2017-10-28T23:34:47.785Z,0.90
2017-10-28T23:37:16.380Z,0.90
2017-10-28T23:39:44.550Z,1.50
2017-10-28T23:42:12.034Z,2.17
2017-10-28T23:44:39.602Z,1.20
2017-10-28T23:47:07.030Z,2.80
2017-10-28T23:49:34.451Z,0.73
2017-10-28T23:52:01.998Z,1.03
2017-10-28T23:54:29.422Z,0.87
2017-10-28T23:56:56.902Z,1.63
2017-10-28T23:59:24.365Z,0.90
